Time;durP1;ratioP1;P1;durP2;ratioP2;P2;SDS_P1;SDS_P2;PMS_P1;PMS_P2;Temp;Humidity;BMP_temperature;BMP_pressure;BME280_temperature;BME280_humidity;BME280_pressure;Samples;Min_cycle;Max_cycle;Signal;HPM_P1;HPM_P2
2022/07/13 00:01:19;;;;;;;4.10;1.10;;;;;;;17.84;57.75;99844.11;1773518;80;25579;-69
2022/07/13 00:03:45;;;;;;;3.12;1.02;;;;;;;17.84;57.79;99845.47;1775470;80;25562;-69
2022/07/13 00:06:11;;;;;;;5.83;1.37;;;;;;;17.84;57.75;99847.40;1777371;79;25725;-69
2022/07/13 00:08:37;;;;;;;1.57;1.00;;;;;;;17.84;57.82;99839.19;1782914;79;27477;-69
2022/07/13 00:11:04;;;;;;;2.85;1.17;;;;;;;17.83;57.94;99842.52;1774151;80;25912;-69
2022/07/13 00:13:30;;;;;;;3.42;1.10;;;;;;;17.83;58.05;99833.53;1770585;80;25520;-69
2022/07/13 00:15:56;;;;;;;3.08;1.30;;;;;;;17.80;58.05;99835.04;1783103;79;25574;-69
2022/07/13 00:18:22;;;;;;;5.50;1.00;;;;;;;17.81;58.15;99834.45;1774519;79;25626;-69
2022/07/13 00:20:48;;;;;;;1.47;1.07;;;;;;;17.81;58.30;99837.19;1773323;80;27492;-69
2022/07/13 00:23:14;;;;;;;1.90;1.27;;;;;;;17.81;58.45;99838.55;1734217;82;25586;-69
2022/07/13 00:25:41;;;;;;;3.17;1.40;;;;;;;17.79;58.58;99844.39;1770333;80;25473;-71
2022/07/13 00:28:07;;;;;;;2.55;1.37;;;;;;;17.77;58.68;99834.41;1781141;79;26228;-68
2022/07/13 00:30:33;;;;;;;2.95;1.40;;;;;;;17.76;58.83;99838.88;1785324;79;25552;-68
2022/07/13 00:32:59;;;;;;;5.17;1.20;;;;;;;17.74;59.03;99840.61;1782602;79;28308;-69
2022/07/13 00:35:25;;;;;;;2.65;1.25;;;;;;;17.72;59.28;99845.10;1780162;79;25756;-69
2022/07/13 00:37:51;;;;;;;4.55;1.42;;;;;;;17.69;59.29;99837.62;1784251;79;25793;-68
2022/07/13 00:40:17;;;;;;;5.12;1.60;;;;;;;17.68;59.48;99834.67;1782389;79;25703;-68
2022/07/13 00:42:43;;;;;;;4.70;1.52;;;;;;;17.67;59.73;99840.51;1781785;79;25615;-69
2022/07/13 00:45:10;;;;;;;6.08;1.32;;;;;;;17.63;59.92;99840.45;1794080;79;27523;-69
2022/07/13 00:47:37;;;;;;;3.17;1.55;;;;;;;17.62;60.25;99828.52;1798695;79;25707;-68
2022/07/13 00:50:07;;;;;;;5.25;1.50;;;;;;;17.61;60.20;99839.27;1795224;79;25404;-68
2022/07/13 00:52:35;;;;;;;;;;;;;;;17.60;60.32;99845.29;1792618;79;25710;-68
2022/07/13 00:55:04;;;;;;;6.03;1.52;;;;;;;17.54;60.69;99826.27;1794341;79;25623;-69
2022/07/13 00:57:36;;;;;;;9.75;1.90;;;;;;;17.57;61.28;99834.30;1774971;79;27659;-69
2022/07/13 01:00:08;;;;;;;6.25;1.47;;;;;;;17.53;60.99;99840.50;1792674;79;25556;-69
2022/07/13 01:02:37;;;;;;;4.08;1.60;;;;;;;17.52;61.13;99843.03;1790364;79;25701;-69
2022/07/13 01:05:05;;;;;;;5.58;1.87;;;;;;;17.50;61.27;99838.52;1794270;79;26120;-69
2022/07/13 01:07:32;;;;;;;2.70;1.50;;;;;;;17.50;61.36;99852.19;1776377;80;25598;-69
2022/07/13 01:10:01;;;;;;;4.12;1.50;;;;;;;17.50;61.47;99850.02;1775459;80;27715;-69
2022/07/13 01:12:29;;;;;;;4.80;1.50;;;;;;;17.48;61.76;99833.19;1780173;79;25722;-69
2022/07/13 01:14:58;;;;;;;4.60;1.75;;;;;;;17.47;61.92;99838.44;1806126;78;26475;-69
2022/07/13 01:17:30;;;;;;;4.53;1.60;;;;;;;17.46;61.99;99846.45;1806721;78;26254;-69
2022/07/13 01:19:58;;;;;;;1.80;1.40;;;;;;;17.44;62.37;99820.84;1803548;78;25496;-69
2022/07/13 01:22:35;;;;;;;3.17;1.57;;;;;;;17.42;62.29;99842.29;1806375;78;28185;-69
2022/07/13 01:25:04;;;;;;;2.47;1.55;;;;;;;17.41;62.46;99830.35;1807435;78;25574;-69
2022/07/13 01:27:34;;;;;;;2.92;1.47;;;;;;;17.41;62.58;99822.93;1806059;78;30076;-69
2022/07/13 01:30:00;;;;;;;;;;;;;;;17.39;62.74;99824.47;1812367;78;25611;-69
2022/07/13 01:32:26;;;;;;;2.95;1.85;;;;;;;17.37;63.01;99805.70;1793342;79;25382;-69
2022/07/13 01:34:52;;;;;;;1.65;1.40;;;;;;;17.36;62.83;99820.51;1801615;78;27465;-69
2022/07/13 01:37:19;;;;;;;2.37;1.60;;;;;;;17.35;62.97;99820.31;1807314;78;25377;-69
2022/07/13 01:39:45;;;;;;;2.55;1.87;;;;;;;17.34;63.00;99818.72;1805031;78;25624;-69
2022/07/13 01:42:12;;;;;;;4.30;1.70;;;;;;;17.32;63.33;99829.23;1784784;78;25590;-68
2022/07/13 01:44:38;;;;;;;5.22;1.87;;;;;;;17.31;63.37;99811.25;1807117;78;25626;-69
2022/07/13 01:47:08;;;;;;;4.00;2.12;;;;;;;17.26;63.56;99806.09;1792383;78;27464;-69
2022/07/13 01:49:35;;;;;;;4.20;2.40;;;;;;;17.24;63.62;99813.88;1733008;82;25655;-69
2022/07/13 01:52:01;;;;;;;5.87;1.90;;;;;;;17.21;63.87;99812.64;1769050;80;25770;-69
2022/07/13 01:54:28;;;;;;;5.67;2.02;;;;;;;17.19;64.09;99806.77;1759697;80;25749;-69
2022/07/13 01:56:54;;;;;;;2.17;1.92;;;;;;;17.16;64.21;99803.39;1762584;80;25585;-69
2022/07/13 01:59:20;;;;;;;1.98;1.50;;;;;;;17.15;64.36;99804.56;1741197;81;27414;-69
2022/07/13 02:01:46;;;;;;;4.65;1.85;;;;;;;17.12;64.55;99814.27;1733922;82;25563;-69
2022/07/13 02:04:12;;;;;;;4.20;2.00;;;;;;;17.11;64.87;99811.89;1756398;80;25544;-69
2022/07/13 02:06:38;;;;;;;6.80;1.92;;;;;;;17.09;65.17;99814.98;1761757;80;27701;-69
2022/07/13 02:09:04;;;;;;;3.92;1.77;;;;;;;17.08;65.45;99808.55;1764551;80;25675;-69
2022/07/13 02:11:30;;;;;;;3.15;1.90;;;;;;;17.05;65.50;99814.73;1762479;80;28428;-69
2022/07/13 02:13:57;;;;;;;5.30;1.72;;;;;;;17.02;65.98;99803.94;1761464;80;25781;-69
2022/07/13 02:16:23;;;;;;;6.33;2.27;;;;;;;17.01;65.96;99811.94;1762929;80;25562;-69
2022/07/13 02:18:49;;;;;;;3.92;2.22;;;;;;;17.00;66.05;99806.25;1764897;80;26316;-69
2022/07/13 02:21:15;;;;;;;4.65;2.17;;;;;;;16.99;66.36;99808.77;1742518;81;25606;-69
2022/07/13 02:23:41;;;;;;;3.85;2.02;;;;;;;16.98;66.41;99804.47;1735442;82;27495;-69
2022/07/13 02:26:07;;;;;;;5.95;1.82;;;;;;;16.99;66.60;99810.13;1760406;80;25543;-69
2022/07/13 02:28:34;;;;;;;4.55;2.00;;;;;;;16.98;66.75;99815.40;1762569;80;25672;-69
2022/07/13 02:31:00;;;;;;;6.37;2.20;;;;;;;16.95;67.16;99811.44;1741188;81;26036;-69
2022/07/13 02:33:26;;;;;;;3.00;1.72;;;;;;;16.96;67.14;99812.25;1734008;82;25663;-69
2022/07/13 02:35:52;;;;;;;4.40;2.20;;;;;;;16.95;67.34;99818.84;1756374;80;28049;-69
2022/07/13 02:38:18;;;;;;;5.35;2.15;;;;;;;16.93;67.45;99817.84;1761722;80;25747;-69
2022/07/13 02:40:44;;;;;;;6.20;2.20;;;;;;;16.93;67.70;99816.48;1764463;80;25588;-69
2022/07/13 02:43:10;;;;;;;5.53;2.40;;;;;;;16.94;67.97;99815.89;1762340;80;25635;-69
2022/07/13 02:45:36;;;;;;;5.80;2.90;;;;;;;16.94;67.93;99813.16;1766066;80;25655;-69
2022/07/13 02:48:04;;;;;;;3.50;2.17;;;;;;;16.93;68.08;99823.89;1778957;79;27499;-69
2022/07/13 02:50:30;;;;;;;4.03;2.15;;;;;;;16.93;68.20;99811.60;1788761;79;25687;-69
2022/07/13 02:52:56;;;;;;;3.42;2.42;;;;;;;16.91;68.57;99814.69;1788104;79;25405;-69
2022/07/13 02:55:22;;;;;;;10.75;2.80;;;;;;;16.91;68.49;99810.59;1772279;80;25742;-68
2022/07/13 02:57:48;;;;;;;3.30;2.47;;;;;;;16.91;68.73;99815.28;1765975;80;25418;-68
2022/07/13 03:00:14;;;;;;;6.20;3.75;;;;;;;16.90;68.92;99809.00;1789068;79;29752;-68
2022/07/13 03:02:41;;;;;;;4.50;2.50;;;;;;;16.90;68.96;99812.32;1787577;79;25679;-69
2022/07/13 03:05:10;;;;;;;8.23;2.58;;;;;;;16.88;69.35;99801.75;1788266;79;25592;-69
2022/07/13 03:07:36;;;;;;;4.17;2.22;;;;;;;16.88;69.35;99811.91;1783989;79;25602;-68
2022/07/13 03:10:03;;;;;;;5.35;2.40;;;;;;;16.86;69.41;99816.94;1787435;79;25611;-69
2022/07/13 03:12:29;;;;;;;2.33;2.02;;;;;;;16.87;69.40;99807.58;1770889;80;27542;-68
2022/07/13 03:14:57;;;;;;;3.50;2.52;;;;;;;16.87;69.52;99813.82;1764111;80;25680;-68
2022/07/13 03:17:23;;;;;;;4.53;2.35;;;;;;;16.87;70.20;99812.45;1787370;79;25683;-68
2022/07/13 03:19:49;;;;;;;6.45;2.50;;;;;;;16.86;69.87;99821.82;1771207;80;25713;-68
2022/07/13 03:22:15;;;;;;;2.65;2.17;;;;;;;16.86;70.82;99808.75;1774014;80;25258;-68
2022/07/13 03:24:41;;;;;;;3.15;2.40;;;;;;;16.85;70.17;99804.43;1777071;80;27525;-69
2022/07/13 03:27:07;;;;;;;5.58;2.20;;;;;;;16.85;70.31;99825.69;1781205;80;25731;-69
2022/07/13 03:29:33;;;;;;;5.17;2.25;;;;;;;16.83;70.48;99811.59;1780608;80;25449;-68
2022/07/13 03:31:59;;;;;;;3.17;2.42;;;;;;;16.83;70.62;99814.91;1785747;80;25649;-68
2022/07/13 03:34:25;;;;;;;2.37;2.17;;;;;;;16.80;70.80;99813.12;1785386;79;25461;-68
2022/07/13 03:36:51;;;;;;;5.05;2.35;;;;;;;16.80;70.77;99814.48;1786573;80;27481;-68
2022/07/13 03:39:17;;;;;;;5.12;2.37;;;;;;;16.79;70.97;99811.52;1779155;80;25789;-68
2022/07/13 03:41:43;;;;;;;3.77;2.47;;;;;;;16.79;70.90;99819.72;1783463;80;25376;-69
2022/07/13 03:44:12;;;;;;;4.25;2.10;;;;;;;16.83;71.03;99812.17;1785930;80;25494;-68
2022/07/13 03:46:37;;;;;;;3.70;2.08;;;;;;;16.81;71.05;99813.31;1780403;80;25632;-68
2022/07/13 03:49:03;;;;;;;3.25;2.10;;;;;;;16.83;71.08;99813.53;1784654;79;27484;-68
2022/07/13 03:51:29;;;;;;;6.70;2.52;;;;;;;16.85;71.27;99822.96;1785818;80;25447;-68
2022/07/13 03:53:55;;;;;;;4.33;2.20;;;;;;;16.83;71.37;99806.12;1784631;80;25653;-68
2022/07/13 03:56:21;;;;;;;5.37;2.33;;;;;;;16.86;71.28;99821.82;1786498;79;25568;-68
2022/07/13 03:58:47;;;;;;;3.37;2.00;;;;;;;16.88;71.30;99799.61;1804451;78;25549;-68
2022/07/13 04:01:13;;;;;;;4.30;2.42;;;;;;;16.89;71.30;99817.00;1735049;82;28139;-68
2022/07/13 04:03:39;;;;;;;2.77;2.40;;;;;;;16.90;71.29;99826.76;1773801;80;25583;-69
2022/07/13 04:06:07;;;;;;;2.42;2.17;;;;;;;16.92;71.32;99812.16;1756215;79;25873;-69
2022/07/13 04:08:34;;;;;;;3.42;2.30;;;;;;;16.92;71.27;99808.64;1790484;79;25552;-69
2022/07/13 04:11:01;;;;;;;5.53;1.90;;;;;;;16.93;71.36;99817.84;1795864;79;25622;-68
2022/07/13 04:13:28;;;;;;;3.60;2.10;;;;;;;16.95;71.32;99839.34;1793375;79;27483;-69
2022/07/13 04:15:53;;;;;;;5.22;2.10;;;;;;;16.96;71.37;99821.81;1790466;79;25391;-68
2022/07/13 04:18:19;;;;;;;5.58;2.15;;;;;;;16.97;71.31;99840.56;1795929;79;25719;-69
2022/07/13 04:20:46;;;;;;;3.77;2.12;;;;;;;17.00;71.64;99833.58;1777990;80;25658;-69
2022/07/13 04:23:12;;;;;;;6.67;1.95;;;;;;;17.03;71.41;99831.48;1774503;80;25511;-68
2022/07/13 04:25:38;;;;;;;3.45;2.00;;;;;;;17.06;71.43;99840.88;1767181;80;27963;-68
2022/07/13 04:28:04;;;;;;;2.85;2.25;;;;;;;17.10;71.46;99852.09;1781863;79;25403;-69
2022/07/13 04:30:30;;;;;;;2.85;2.00;;;;;;;17.14;71.37;99837.91;1773677;80;25470;-68
2022/07/13 04:32:56;;;;;;;3.10;2.10;;;;;;;17.21;71.31;99844.66;1773464;80;26167;-68
2022/07/13 04:35:22;;;;;;;6.95;2.22;;;;;;;17.27;71.19;99851.41;1781903;79;25585;-71
2022/07/13 04:37:49;;;;;;;2.17;1.92;;;;;;;17.32;71.20;99860.67;1793639;79;28049;-69
2022/07/13 04:40:15;;;;;;;3.22;2.00;;;;;;;17.37;70.97;99850.80;1796729;79;25702;-69
2022/07/13 04:42:41;;;;;;;5.83;1.70;;;;;;;17.45;70.95;99843.48;1775244;80;25726;-68
2022/07/13 04:45:09;;;;;;;2.62;1.62;;;;;;;17.52;70.89;99853.16;1768901;80;26254;-69
2022/07/13 04:47:37;;;;;;;3.52;1.60;;;;;;;17.58;70.60;99856.39;1773697;79;25859;-69
2022/07/13 04:50:04;;;;;;;5.55;2.20;;;;;;;17.65;70.70;99853.18;1789001;80;27505;-69
2022/07/13 04:52:30;;;;;;;3.98;1.80;;;;;;;17.72;70.38;99853.87;1783510;80;25751;-69
2022/07/13 04:54:56;;;;;;;5.70;1.77;;;;;;;17.80;70.09;99845.20;1793336;79;25618;-69
2022/07/13 04:57:22;;;;;;;3.17;1.90;;;;;;;17.83;70.05;99852.09;1782049;79;26256;-69
2022/07/13 04:59:49;;;;;;;4.22;1.67;;;;;;;17.88;69.95;99842.23;1795870;79;25546;-68
2022/07/13 05:02:15;;;;;;;4.75;1.80;;;;;;;17.91;69.74;99857.10;1795805;79;27006;-66
2022/07/13 05:04:41;;;;;;;7.58;2.83;;;;;;;17.94;69.52;99851.48;1795657;79;25441;-66
2022/07/13 05:07:07;;;;;;;3.75;2.80;;;;;;;17.98;69.46;99849.58;1795809;79;25538;-67
2022/07/13 05:09:33;;;;;;;2.72;2.00;;;;;;;18.02;69.53;99853.16;1795720;78;25589;-67
2022/07/13 05:11:59;;;;;;;1.95;1.67;;;;;;;18.11;69.48;99833.14;1795823;79;25452;-68
2022/07/13 05:14:25;;;;;;;2.98;1.95;;;;;;;18.19;69.40;99844.40;1795713;79;29617;-68
2022/07/13 05:16:51;;;;;;;3.17;1.72;;;;;;;18.33;69.33;99840.27;1794802;79;25381;-67
2022/07/13 05:19:17;;;;;;;2.35;2.05;;;;;;;18.42;68.98;99845.67;1795755;79;25476;-67
2022/07/13 05:21:43;;;;;;;4.75;1.85;;;;;;;18.52;68.59;99843.42;1795747;79;25594;-67
2022/07/13 05:24:09;;;;;;;4.08;2.05;;;;;;;18.62;68.22;99849.60;1795816;79;25584;-67
2022/07/13 05:26:36;;;;;;;3.40;1.75;;;;;;;18.70;67.74;99855.97;1795771;79;27547;-67
2022/07/13 05:29:04;;;;;;;5.15;1.77;;;;;;;18.72;67.43;99850.30;1781808;79;25718;-67
2022/07/13 05:31:32;;;;;;;2.08;1.70;;;;;;;18.77;67.22;99858.77;1782358;79;25523;-68
2022/07/13 05:33:58;;;;;;;3.98;1.47;;;;;;;18.81;67.17;99856.28;1781787;79;26326;-67
2022/07/13 05:36:24;;;;;;;3.55;1.72;;;;;;;18.85;66.68;99850.88;1788369;79;25690;-67
2022/07/13 05:38:51;;;;;;;5.72;1.70;;;;;;;18.85;66.56;99850.88;1788460;79;27521;-68
2022/07/13 05:41:17;;;;;;;4.00;1.90;;;;;;;18.86;66.48;99853.80;1786135;79;25878;-67
2022/07/13 05:43:43;;;;;;;5.47;1.80;;;;;;;18.90;66.40;99852.46;1775447;80;25739;-67
2022/07/13 05:46:09;;;;;;;7.00;1.72;;;;;;;18.91;66.04;99860.91;1774052;80;25386;-68
2022/07/13 05:48:36;;;;;;;3.22;1.57;;;;;;;18.90;65.99;99856.58;1776827;79;25478;-68
2022/07/13 05:51:04;;;;;;;2.58;1.90;;;;;;;18.93;66.08;99863.45;1781166;80;28233;-68
2022/07/13 05:53:33;;;;;;;7.60;3.95;;;;;;;18.94;65.93;99865.05;1779380;80;25753;-68
2022/07/13 05:56:00;;;;;;;2.77;1.50;;;;;;;18.98;65.99;99871.93;1774509;80;25566;-67
2022/07/13 05:58:26;;;;;;;3.17;1.35;;;;;;;19.01;65.87;99880.18;1779360;80;25420;-68
2022/07/13 06:00:52;;;;;;;3.80;1.70;;;;;;;19.03;65.77;99877.88;1780033;80;25777;-68
2022/07/13 06:03:18;;;;;;;3.25;1.70;;;;;;;19.03;65.52;99878.44;1781279;79;26949;-68
2022/07/13 06:05:44;;;;;;;3.50;2.02;;;;;;;19.07;65.57;99893.55;1780450;80;25629;-68
2022/07/13 06:08:12;;;;;;;2.80;1.52;;;;;;;19.05;65.37;99898.03;1767738;80;25646;-68
2022/07/13 06:10:39;;;;;;;4.03;1.57;;;;;;;19.07;65.54;99894.36;1736920;81;25675;-68
2022/07/13 06:13:06;;;;;;;5.37;2.25;;;;;;;19.10;65.43;99901.02;1773458;80;25726;-68
2022/07/13 06:15:32;;;;;;;3.30;2.58;;;;;;;19.10;65.37;99903.17;1780235;79;28173;-68
2022/07/13 06:17:58;;;;;;;3.45;1.90;;;;;;;19.11;65.10;99901.23;1801743;79;26008;-67
2022/07/13 06:20:24;;;;;;;2.62;1.75;;;;;;;19.14;65.21;99903.23;1802265;79;25369;-67
2022/07/13 06:23:09;;;;;;;3.05;1.77;;;;;;;19.18;65.37;99909.53;1787950;80;26166;-68
2022/07/13 06:25:39;;;;;;;5.03;1.52;;;;;;;19.23;65.20;99899.00;1788004;79;25561;-67
2022/07/13 06:28:08;;;;;;;6.00;1.60;;;;;;;19.33;65.34;99912.61;1787918;80;27621;-67
2022/07/13 06:30:35;;;;;;;6.40;1.50;;;;;;;19.51;65.49;99904.55;1788003;80;25437;-67
2022/07/13 06:33:02;;;;;;;6.10;1.95;;;;;;;19.69;64.93;99899.79;1787906;80;25616;-68
2022/07/13 06:35:29;;;;;;;4.78;2.70;;;;;;;19.84;64.72;99913.84;1763614;80;26568;-67
2022/07/13 06:37:56;;;;;;;4.47;1.37;;;;;;;20.00;64.53;99916.89;1787991;80;25707;-67
2022/07/13 06:40:23;;;;;;;7.08;1.70;;;;;;;20.10;63.75;99916.95;1787927;79;27287;-67
2022/07/13 06:42:49;;;;;;;3.85;1.25;;;;;;;20.18;63.54;99921.91;1787859;79;25670;-67
2022/07/13 06:45:15;;;;;;;2.72;1.57;;;;;;;20.26;62.83;99912.55;1787896;80;25564;-67
2022/07/13 06:47:42;;;;;;;4.15;1.75;;;;;;;20.27;62.33;99916.08;1787904;80;25547;-67
2022/07/13 06:50:10;;;;;;;3.42;1.77;;;;;;;20.26;61.94;99902.14;1777414;80;25374;-67
2022/07/13 06:52:37;;;;;;;1.42;1.22;;;;;;;20.24;61.77;99921.73;1777127;80;28022;-67
2022/07/13 06:55:07;;;;;;;5.15;1.70;;;;;;;20.26;61.91;99918.05;1776960;80;25355;-67
2022/07/13 06:57:34;;;;;;;2.33;1.37;;;;;;;20.33;61.86;99917.30;1777143;80;25405;-67
2022/07/13 07:00:02;;;;;;;2.50;1.30;;;;;;;20.43;61.92;99913.02;1777115;80;25857;-67
2022/07/13 07:02:28;;;;;;;2.98;1.40;;;;;;;20.55;61.93;99916.02;1777191;80;25553;-67
2022/07/13 07:04:55;;;;;;;3.80;1.57;;;;;;;20.67;61.57;99900.02;1782634;80;27277;-67
2022/07/13 07:07:22;;;;;;;1.55;1.37;;;;;;;20.88;61.17;99901.25;1783885;80;25753;-67
2022/07/13 07:09:49;;;;;;;2.75;1.60;;;;;;;21.11;61.09;99897.38;1784764;80;25398;-67
2022/07/13 07:12:16;;;;;;;2.50;1.60;;;;;;;21.37;60.59;99892.89;1784698;80;25691;-67
2022/07/13 07:14:42;;;;;;;1.87;1.35;;;;;;;21.69;60.54;99896.27;1785968;80;25612;-67
2022/07/13 07:17:09;;;;;;;2.90;1.77;;;;;;;22.01;60.01;99904.49;1787057;80;27364;-68
2022/07/13 07:19:36;;;;;;;3.35;1.60;;;;;;;22.34;59.46;99901.08;1782860;80;25754;-67
2022/07/13 07:22:02;;;;;;;4.80;1.37;;;;;;;22.73;59.39;99899.33;1787383;80;25809;-68
2022/07/13 07:24:30;;;;;;;3.33;1.70;;;;;;;23.07;58.51;99890.51;1765082;80;25760;-68
2022/07/13 07:26:56;;;;;;;3.65;1.40;;;;;;;23.36;56.02;99893.07;1785039;80;25567;-68
2022/07/13 07:29:22;;;;;;;3.42;1.20;;;;;;;23.59;54.77;99888.36;1778293;80;27328;-68
2022/07/13 07:31:48;;;;;;;1.80;1.12;;;;;;;23.91;56.28;99883.95;1788414;79;25391;-67
2022/07/13 07:34:15;;;;;;;2.02;1.10;;;;;;;24.26;54.69;99885.35;1783981;80;25482;-67
2022/07/13 07:36:41;;;;;;;3.27;1.17;;;;;;;24.49;52.63;99873.64;1779924;80;25657;-67
2022/07/13 07:39:07;;;;;;;3.52;0.90;;;;;;;24.70;52.04;99889.95;1781612;80;25729;-68
2022/07/13 07:41:35;;;;;;;2.90;1.02;;;;;;;24.89;51.19;99894.07;1785531;80;27561;-68
2022/07/13 07:44:01;;;;;;;9.63;4.95;;;;;;;25.13;50.65;99887.19;1792863;80;25480;-68
2022/07/13 07:46:28;;;;;;;4.40;1.60;;;;;;;25.43;50.13;99884.97;1793024;80;25441;-69
2022/07/13 07:48:56;;;;;;;1.25;0.88;;;;;;;25.71;49.39;99882.33;1798719;79;25460;-68
2022/07/13 07:51:22;;;;;;;2.33;0.93;;;;;;;26.03;48.96;99876.03;1812604;79;25714;-69
2022/07/13 07:53:48;;;;;;;3.15;1.07;;;;;;;26.28;47.45;99895.73;1812589;78;28066;-69
2022/07/13 07:56:14;;;;;;;3.15;1.10;;;;;;;26.48;47.18;99896.34;1818275;78;25992;-68
2022/07/13 07:58:41;;;;;;;3.65;1.10;;;;;;;26.77;46.59;99886.06;1818570;78;25557;-69
2022/07/13 08:01:07;;;;;;;1.47;0.88;;;;;;;26.99;45.50;99880.81;1818548;78;25712;-69
2022/07/13 08:03:33;;;;;;;2.37;0.80;;;;;;;27.21;45.09;99894.97;1818327;78;25440;-68
2022/07/13 08:05:59;;;;;;;3.62;0.95;;;;;;;27.44;45.24;99892.64;1818598;77;27322;-69
2022/07/13 08:08:26;;;;;;;1.35;0.90;;;;;;;27.73;44.18;99892.70;1818475;78;25415;-69
2022/07/13 08:10:54;;;;;;;3.12;1.00;;;;;;;27.99;43.88;99890.68;1818302;78;25658;-69
2022/07/13 08:13:20;;;;;;;3.05;1.00;;;;;;;28.23;43.29;99887.03;1818502;78;25638;-69
2022/07/13 08:15:47;;;;;;;3.70;1.10;;;;;;;28.45;42.92;99889.40;1818533;78;25635;-69
2022/07/13 08:18:13;;;;;;;3.17;0.90;;;;;;;28.72;42.19;99876.33;1818333;77;28184;-68
2022/07/13 08:20:40;;;;;;;5.50;0.98;;;;;;;28.89;40.72;99884.73;1818490;78;25366;-68
2022/07/13 08:23:50;;;;;;;2.17;1.10;;;;;;;29.00;40.43;99878.84;1818540;78;25538;-68
2022/07/13 08:25:34;;;;;;;1.13;0.73;;;;;;;29.26;39.93;99869.88;1819387;78;27501;-69
2022/07/13 08:28:00;;;;;;;0.82;0.70;;;;;;;29.41;39.46;99870.19;1818575;78;25658;-69
2022/07/13 08:30:27;;;;;;;3.30;2.50;;;;;;;29.58;39.24;99878.55;1818517;78;27185;-71
2022/07/13 08:32:53;;;;;;;2.42;1.60;;;;;;;29.78;38.82;99882.48;1818327;78;25597;-68
2022/07/13 08:40:48;;;;;;;3.40;0.88;;;;;;;29.99;36.49;99882.34;1818404;78;25429;-70
2022/07/13 08:43:15;;;;;;;5.20;1.07;;;;;;;30.09;36.61;99894.34;1818551;78;27368;-69
2022/07/13 08:45:43;;;;;;;4.87;1.00;;;;;;;30.20;35.00;99888.99;1818453;78;25588;-69
2022/07/13 08:48:16;;;;;;;0.75;0.60;;;;;;;30.13;34.90;99898.39;1818253;77;25459;-70
2022/07/13 08:50:44;;;;;;;2.80;0.80;;;;;;;30.17;35.23;99910.98;1819616;78;25799;-69
2022/07/13 08:53:11;;;;;;;1.85;0.80;;;;;;;30.24;34.71;99907.16;1820637;78;25376;-68
2022/07/13 08:55:38;;;;;;;1.80;0.62;;;;;;;30.30;34.86;99896.95;1820252;78;27307;-70
2022/07/13 08:58:06;;;;;;;3.65;1.07;;;;;;;30.53;34.47;99898.53;1820461;78;25733;-68
2022/07/13 09:00:32;;;;;;;0.85;0.55;;;;;;;30.63;34.42;99902.77;1820591;78;25547;-69
2022/07/13 09:02:58;;;;;;;1.42;0.80;;;;;;;30.82;34.01;99914.80;1820380;78;25525;-71
2022/07/13 09:05:27;;;;;;;3.35;0.72;;;;;;;30.94;33.78;99909.78;1820605;78;25437;-69
2022/07/13 09:08:05;;;;;;;0.75;0.75;;;;;;;30.99;32.81;99900.00;1820682;78;27309;-68
2022/07/13 09:10:34;;;;;;;0.88;0.70;;;;;;;30.88;33.15;99908.78;1820273;78;25731;-70
2022/07/13 09:13:00;;;;;;;1.95;0.70;;;;;;;30.95;32.56;99897.36;1818529;78;25620;-69
2022/07/13 09:15:27;;;;;;;3.80;0.90;;;;;;;31.00;32.30;99911.34;1820427;77;25577;-70
2022/07/13 09:17:53;;;;;;;2.70;0.85;;;;;;;31.13;32.67;99909.23;1820288;78;25601;-69
2022/07/13 09:20:22;;;;;;;2.42;0.65;;;;;;;31.33;33.18;99920.60;1820379;78;26991;-69
2022/07/13 09:22:58;;;;;;;2.75;0.70;;;;;;;31.55;32.81;99908.75;1820616;78;26146;-69
2022/07/13 09:25:29;;;;;;;2.52;0.80;;;;;;;31.78;32.30;99918.55;1820358;78;25729;-69
2022/07/13 09:27:55;;;;;;;2.42;1.10;;;;;;;31.97;32.81;99915.13;1820390;78;25642;-69
2022/07/13 09:30:24;;;;;;;0.80;0.65;;;;;;;32.19;32.95;99912.82;1820559;78;25613;-70
2022/07/13 09:32:53;;;;;;;1.65;1.02;;;;;;;32.47;32.73;99923.97;1820331;78;26836;-69
2022/07/13 09:35:21;;;;;;;1.95;1.12;;;;;;;32.64;32.48;99928.02;1819777;78;25418;-72
2022/07/13 09:37:48;;;;;;;3.50;0.90;;;;;;;32.67;31.57;99913.05;1820714;78;25402;-69
2022/07/13 09:40:18;;;;;;;3.33;1.22;;;;;;;32.72;31.89;99927.05;1820306;78;25983;-69
2022/07/13 09:46:08;;;;;;;1.77;0.82;;;;;;;32.73;30.94;99916.78;1820569;78;25437;-68
2022/07/13 09:48:00;;;;;;;3.42;0.72;;;;;;;32.80;31.27;99918.47;1820131;78;25657;-68
2022/07/13 09:50:40;;;;;;;1.85;0.88;;;;;;;32.86;30.95;99931.20;1820628;78;25624;-69
2022/07/13 09:53:30;;;;;;;2.67;0.70;;;;;;;32.98;31.06;99923.84;1820566;78;25389;-68
2022/07/13 09:55:59;;;;;;;2.80;0.75;;;;;;;33.02;30.71;99929.44;1820752;78;25674;-69
2022/07/13 09:58:33;;;;;;;0.80;0.47;;;;;;;33.10;30.23;99929.25;1820859;78;27271;-69
2022/07/13 10:01:04;;;;;;;3.10;0.90;;;;;;;33.23;29.94;99933.25;1795595;78;26540;-70
2022/07/13 10:03:31;;;;;;;3.05;0.90;;;;;;;33.26;30.10;99932.94;1792258;80;25399;-69
2022/07/13 10:06:00;;;;;;;2.40;0.98;;;;;;;33.69;30.68;99935.80;1792537;80;25563;-70
2022/07/13 10:08:28;;;;;;;1.07;0.60;;;;;;;33.69;30.68;99935.80;1761953;81;25248;-69
2022/07/13 10:10:54;;;;;;;1.37;0.78;;;;;;;33.91;29.99;99919.92;1728989;81;27331;-69
2022/07/13 10:13:20;;;;;;;4.35;0.70;;;;;;;33.82;30.16;99927.78;1762075;81;25678;-69
2022/07/13 10:15:48;;;;;;;2.52;0.80;;;;;;;33.82;30.16;99927.78;1761878;81;25421;-69
2022/07/13 10:18:28;;;;;;;1.35;0.98;;;;;;;33.88;29.84;99932.86;1762132;81;25537;-68
2022/07/13 10:21:18;;;;;;;1.85;0.70;;;;;;;33.70;28.65;99947.81;1762157;81;25645;-68
2022/07/13 10:23:45;;;;;;;2.00;0.90;;;;;;;33.19;29.00;99927.05;1730003;81;27329;-68
2022/07/13 10:26:25;;;;;;;4.25;0.78;;;;;;;33.02;29.29;99937.07;1762168;81;25360;-68
2022/07/13 10:29:07;;;;;;;3.62;1.02;;;;;;;32.94;29.80;99943.62;1741441;80;25559;-69
2022/07/13 10:31:36;;;;;;;3.35;0.70;;;;;;;32.98;29.39;99935.81;1820428;78;25621;-69
2022/07/13 10:34:03;;;;;;;;;;;;;;;32.95;29.72;99938.95;1797646;79;25625;-69
2022/07/13 10:36:55;;;;;;;3.60;0.82;;;;;;;33.10;29.78;99943.25;1820859;78;27416;-68
2022/07/13 10:39:24;;;;;;;2.47;0.60;;;;;;;33.19;29.58;99941.06;1820612;78;25657;-69
2022/07/13 10:42:02;;;;;;;;;;;;;;;33.43;29.80;99936.88;1797610;79;25697;-69
2022/07/13 10:44:42;;;;;;;2.47;1.07;;;;;;;33.69;29.83;99936.43;1821225;78;25617;-68
2022/07/13 10:47:12;;;;;;;4.75;1.12;;;;;;;33.90;29.28;99932.38;1820584;78;25710;-69
2022/07/13 10:49:46;;;;;;;3.25;1.10;;;;;;;33.96;28.19;99929.84;1802698;79;27310;-68
2022/07/13 10:52:27;;;;;;;4.22;1.57;;;;;;;33.80;28.40;99954.91;1819986;78;25658;-67
2022/07/13 10:55:11;;;;;;;3.83;1.02;;;;;;;33.74;29.01;99956.80;1817060;78;25278;-68
2022/07/13 10:57:42;;;;;;;3.75;1.10;;;;;;;33.82;29.03;99936.96;1820510;78;25503;-69
2022/07/13 11:00:23;;;;;;;5.35;0.90;;;;;;;33.55;28.75;99942.11;1820364;78;25664;-69
2022/07/13 11:02:50;;;;;;;3.75;1.27;;;;;;;33.44;29.38;99942.64;1817680;78;26798;-69
2022/07/13 11:05:26;;;;;;;4.67;1.10;;;;;;;33.37;29.37;99949.22;1808824;78;25609;-68
2022/07/13 11:07:54;;;;;;;3.10;1.35;;;;;;;33.50;29.91;99935.12;1730674;82;25588;-68
2022/07/13 11:10:30;;;;;;;5.47;2.62;;;;;;;33.85;30.24;99946.44;1786278;79;25874;-70
2022/07/13 11:13:12;;;;;;;3.33;1.25;;;;;;;34.06;29.91;99947.37;1797657;79;25555;-69
2022/07/13 11:15:52;;;;;;;4.17;2.58;;;;;;;34.20;29.31;99945.24;1797645;79;27484;-68
2022/07/13 11:18:36;;;;;;;6.37;1.87;;;;;;;34.21;29.51;99939.79;1797686;79;25775;-69
2022/07/13 11:21:12;;;;;;;3.65;1.10;;;;;;;34.20;29.27;99931.85;1797830;79;25614;-68
2022/07/13 11:26:51;;;;;;;3.60;1.37;;;;;;;33.65;30.24;99944.23;1797927;79;25626;-68
2022/07/13 11:29:21;;;;;;;1.77;1.17;;;;;;;33.88;30.19;99949.69;1797724;79;27399;-69
2022/07/13 11:31:56;;;;;;;5.53;1.67;;;;;;;33.91;29.97;99940.32;1797649;79;25590;-69
2022/07/13 11:34:24;;;;;;;7.05;1.25;;;;;;;34.05;29.93;99934.59;1797780;79;25725;-69
2022/07/13 11:36:57;;;;;;;3.10;1.20;;;;;;;33.98;30.10;99934.97;1797401;79;25608;-69
2022/07/13 11:39:33;;;;;;;7.40;1.50;;;;;;;34.10;30.13;99945.78;1797896;79;25598;-69
2022/07/13 11:42:05;;;;;;;6.17;1.37;;;;;;;34.12;29.85;99942.63;1797732;79;27575;-73
2022/07/13 11:44:33;;;;;;;2.60;1.40;;;;;;;34.24;29.10;99958.47;1797631;79;25532;-68
2022/07/13 11:47:03;;;;;;;3.30;1.55;;;;;;;34.05;29.20;99936.00;1797792;79;32453;-69
2022/07/13 11:49:49;;;;;;;2.35;1.40;;;;;;;33.96;29.20;99934.05;1797732;79;25704;-69